Terminal Aerodrome Forecast
Issued by NWS

Current Version | Previous Version | Text Only | Print | Product List | Glossary On
Versions: 1 2 3 4 5 6 7 8 9 10 11 12 13 14 15 16 17 18
000
FTUS41 KGYX 272336
TAFAUG
TAF
KAUG 272336Z 2800/2824 18012G18KT P6SM SCT050 OVC250
      TEMPO 2801/2803 26015G25KT 1SM TSRA BKN025CB
     FM280300 19007KT P6SM OVC100
     FM280600 19008KT 4SM BR OVC007
     FM280900 19004KT 1/2SM FG OVC002
     FM281300 22012G18KT P6SM BKN250
     FM281700 22011G18KT P6SM OVC050 PROB30 2818/2821 P6SM -TSRA
      BKN050CB=

USA.gov is the U.S. government's official web portal to all federal, state and local government web resources and services.